Terminal Aerodrome Forecast
Issued by NWS

Home | Current Version | Previous Version | Text Only | Print | Product List | Glossary On
Versions: 1 2 3 4 5 6 7 8 9 10 11 12 13 14 15 16 17 18
253
FTUS43 KEAX 162320
TAFSTJ
TAF
KSTJ 162320Z 1700/1724 15008KT P6SM SCT050
      TEMPO 1703/1706 BKN029
     FM170600 17011KT P6SM OVC020
     FM170900 17015KT P6SM OVC015
     FM171200 17012G20KT 5SM -DZ OVC007=

USA.gov is the U.S. government's official web portal to all federal, state and local government web resources and services.